Time;durP1;ratioP1;P1;durP2;ratioP2;P2;SDS_P1;SDS_P2;PMS_P1;PMS_P2;Temp;Humidity;BMP_temperature;BMP_pressure;BME280_temperature;BME280_humidity;BME280_pressure;Samples;Min_cycle;Max_cycle;Signal;HPM_P1;HPM_P2
2022/08/11 00:00:12;;;;;;;6.78;4.93;;;19.00;99.90;;;;;;5087504;28;20044;-73
2022/08/11 00:02:49;;;;;;;11.07;5.00;;;18.40;99.90;;;;;;5087096;28;20044;-74
2022/08/11 00:05:18;;;;;;;11.25;6.07;;;19.10;99.90;;;;;;5086708;28;20036;-74
2022/08/11 00:07:47;;;;;;;8.77;5.90;;;18.80;99.90;;;;;;5086900;28;20282;-73
2022/08/11 00:10:15;;;;;;;6.80;5.75;;;19.10;99.90;;;;;;5087137;28;20036;-73
2022/08/11 00:12:43;;;;;;;6.53;5.32;;;18.20;99.90;;;;;;5086941;28;20493;-73
2022/08/11 00:15:10;;;;;;;9.45;5.47;;;18.30;99.90;;;;;;5088173;28;20089;-74
2022/08/11 00:17:36;;;;;;;7.22;5.80;;;18.40;99.90;;;;;;5086749;28;20044;-74
2022/08/11 00:20:09;;;;;;;9.48;5.35;;;19.40;99.90;;;;;;5076587;28;20394;-73
2022/08/11 00:22:37;;;;;;;7.55;5.72;;;18.10;99.90;;;;;;5073525;28;20402;-73
2022/08/11 00:25:19;;;;;;;6.75;5.68;;;18.40;99.90;;;;;;5073051;28;20044;-73
2022/08/11 00:27:46;;;;;;;7.68;5.30;;;18.20;99.90;;;;;;5074377;28;20098;-73
2022/08/11 00:30:13;;;;;;;8.00;5.55;;;19.10;99.90;;;;;;5073096;28;20068;-73
2022/08/11 00:32:42;;;;;;;9.70;5.95;;;18.30;99.90;;;;;;5055385;28;20040;-73
2022/08/11 00:35:12;;;;;;;7.95;4.82;;;18.10;99.90;;;;;;5072707;28;20036;-73
2022/08/11 00:37:38;;;;;;;8.27;5.78;;;18.20;99.90;;;;;;5073046;28;20048;-73
2022/08/11 00:40:09;;;;;;;8.23;5.13;;;18.20;99.90;;;;;;5073351;28;20039;-73
2022/08/11 00:42:53;;;;;;;8.40;5.68;;;18.20;99.90;;;;;;5073193;28;20398;-73
2022/08/11 00:45:19;;;;;;;7.15;5.82;;;18.20;99.90;;;;;;5073909;28;20044;-73
2022/08/11 00:48:19;;;;;;;8.70;5.20;;;19.40;99.90;;;;;;5073097;28;20052;-74
2022/08/11 00:51:12;;;;;;;6.80;5.40;;;18.20;99.90;;;;;;5073166;28;20035;-74
2022/08/11 00:54:04;;;;;;;;;;;18.20;99.90;;;;;;5073465;28;20462;-74
2022/08/11 00:56:42;;;;;;;8.80;5.75;;;18.10;99.90;;;;;;5055770;28;20006;-75
2022/08/11 00:59:45;;;;;;;8.20;5.60;;;17.90;99.90;;;;;;5056189;28;20036;-74
2022/08/11 01:02:37;;;;;;;7.88;5.45;;;18.10;99.90;;;;;;5072768;28;20040;-73
2022/08/11 01:05:37;;;;;;;8.98;5.75;;;18.00;99.90;;;;;;5073271;28;20044;-73
2022/08/11 01:08:27;;;;;;;11.55;6.63;;;17.90;99.90;;;;;;5055609;28;20036;-74
2022/08/11 01:11:01;;;;;;;7.80;5.97;;;17.90;99.90;;;;;;5072543;28;20041;-73
2022/08/11 01:14:05;;;;;;;11.07;6.28;;;17.70;99.90;;;;;;5073401;28;20033;-73
2022/08/11 01:16:30;;;;;;;9.93;6.57;;;17.70;99.90;;;;;;5073501;28;20040;-73
2022/08/11 01:18:59;;;;;;;9.02;6.35;;;17.70;99.90;;;;;;5072398;28;20502;-73
2022/08/11 01:22:14;;;;;;;9.60;5.82;;;17.80;99.90;;;;;;5073372;28;20494;-73
2022/08/11 01:24:56;;;;;;;10.43;6.07;;;17.70;99.90;;;;;;5073090;28;20041;-73
2022/08/11 01:27:52;;;;;;;8.68;6.38;;;17.90;99.90;;;;;;5055333;28;20044;-73
2022/08/11 01:30:52;;;;;;;9.00;6.50;;;17.70;99.90;;;;;;5073025;28;20044;-73
2022/08/11 01:33:43;;;;;;;9.70;6.35;;;17.70;99.90;;;;;;5071769;28;20540;-73
2022/08/11 01:36:26;;;;;;;14.73;7.10;;;17.80;99.90;;;;;;5071684;28;20032;-74
2022/08/11 01:39:13;;;;;;;7.22;6.18;;;17.80;99.90;;;;;;5073113;28;20044;-73
2022/08/11 01:45:15;;;;;;;11.38;7.70;;;17.60;99.90;;;;;;5071150;28;20040;-73
2022/08/11 01:48:03;;;;;;;9.05;7.07;;;17.80;99.90;;;;;;5054851;28;20051;-73
2022/08/11 01:50:41;;;;;;;11.63;7.00;;;17.70;99.90;;;;;;5071459;28;20036;-73
2022/08/11 01:53:29;;;;;;;9.15;6.75;;;17.60;99.90;;;;;;5071405;28;20101;-73
2022/08/11 01:56:32;;;;;;;9.65;6.88;;;17.60;99.90;;;;;;5054682;28;20074;-73
2022/08/11 01:59:15;;;;;;;9.13;7.68;;;17.80;99.90;;;;;;5072623;28;20055;-74
2022/08/11 02:01:50;;;;;;;;;;;17.60;99.90;;;;;;5072056;28;20063;-73
2022/08/11 02:04:30;;;;;;;8.43;7.43;;;17.40;99.90;;;;;;5071132;28;20337;-73
2022/08/11 02:07:10;;;;;;;9.20;6.95;;;17.40;99.90;;;;;;5054507;28;20059;-73
2022/08/11 02:13:46;;;;;;;12.00;8.20;;;17.30;99.90;;;;;;5071337;28;20418;-73
2022/08/11 02:16:24;;;;;;;10.05;7.78;;;17.20;99.90;;;;;;5036914;28;20124;-73
2022/08/11 02:25:01;;;;;;;13.30;8.38;;;17.40;99.90;;;;;;5051352;28;20045;-73
2022/08/11 02:27:42;;;;;;;11.13;8.82;;;18.10;99.90;;;;;;5070783;28;20528;-74
2022/08/11 02:30:13;;;;;;;12.07;8.70;;;17.20;99.90;;;;;;5072266;28;20036;-74
2022/08/11 02:35:46;;;;;;;12.52;8.27;;;16.90;99.90;;;;;;5071779;28;20474;-73
2022/08/11 02:38:37;;;;;;;12.15;8.15;;;17.20;99.90;;;;;;5070745;28;20079;-73
2022/08/11 02:44:46;;;;;;;10.85;8.30;;;17.20;99.90;;;;;;5071726;28;20079;-74
2022/08/11 02:49:52;;;;;;;15.48;8.40;;;17.30;99.90;;;;;;5070453;28;20429;-73
2022/08/11 02:50:34;;;;;;;8.93;7.70;;;16.90;99.90;;;;;;5067082;28;20044;-73
2022/08/11 02:53:11;;;;;;;11.38;7.80;;;17.00;99.90;;;;;;5070770;28;20036;-73
2022/08/11 02:55:52;;;;;;;9.68;8.20;;;17.00;99.90;;;;;;5053596;28;20067;-73
2022/08/11 02:58:37;;;;;;;11.23;8.73;;;18.10;99.90;;;;;;5071882;28;20044;-74
2022/08/11 03:01:10;;;;;;;11.93;8.55;;;18.50;99.90;;;;;;5070401;28;20059;-73
2022/08/11 03:03:51;;;;;;;11.13;8.27;;;16.80;99.90;;;;;;5053844;28;20066;-74
2022/08/11 03:06:43;;;;;;;11.13;8.77;;;16.90;99.90;;;;;;5070709;28;20052;-73
2022/08/11 03:09:44;;;;;;;15.88;9.27;;;16.90;99.90;;;;;;5070305;28;20041;-73
2022/08/11 03:18:25;;;;;;;8.63;7.70;;;16.80;99.90;;;;;;5070609;28;20428;-73
2022/08/11 03:20:56;;;;;;;12.48;9.07;;;16.90;99.90;;;;;;5053624;28;20037;-73
2022/08/11 03:23:48;;;;;;;11.52;9.35;;;17.50;99.90;;;;;;5070281;28;20127;-73
2022/08/11 03:26:26;;;;;;;12.10;9.80;;;16.80;99.90;;;;;;5053594;28;20490;-74
2022/08/11 03:29:13;;;;;;;13.32;9.57;;;16.80;99.90;;;;;;5070269;28;20090;-73
2022/08/11 03:32:18;;;;;;;13.68;9.32;;;16.90;99.90;;;;;;5070462;28;20037;-73
2022/08/11 03:34:47;;;;;;;14.65;9.02;;;16.50;99.90;;;;;;5064820;28;20155;-74
2022/08/11 03:37:49;;;;;;;11.05;8.40;;;16.80;99.90;;;;;;5053296;28;20044;-74
2022/08/11 03:41:41;;;;;;;11.52;8.40;;;18.20;99.90;;;;;;5071299;28;20414;-73
2022/08/11 03:43:21;;;;;;;12.57;8.18;;;16.70;99.90;;;;;;5070089;28;20067;-73
2022/08/11 03:46:11;;;;;;;16.60;9.32;;;16.50;99.90;;;;;;5069894;28;20043;-74
2022/08/11 03:48:56;;;;;;;14.70;8.27;;;16.80;99.90;;;;;;5070045;28;20521;-73
2022/08/11 03:51:24;;;;;;;11.60;9.43;;;16.70;99.90;;;;;;5070018;28;20316;-74
2022/08/11 03:54:10;;;;;;;11.77;8.90;;;16.70;99.90;;;;;;5071100;28;20445;-73
2022/08/11 03:57:14;;;;;;;13.27;9.20;;;16.90;99.90;;;;;;5074983;28;20055;-73
2022/08/11 03:59:55;;;;;;;;;;;16.70;99.90;;;;;;5074630;28;20060;-73
2022/08/11 04:02:35;;;;;;;11.95;8.95;;;16.80;99.90;;;;;;5056755;28;20402;-73
2022/08/11 04:05:41;;;;;;;13.10;10.20;;;16.60;99.90;;;;;;5073137;28;20037;-73
2022/08/11 04:08:37;;;;;;;13.02;9.77;;;16.70;99.90;;;;;;5073364;28;20122;-73
2022/08/11 04:11:39;;;;;;;15.27;10.30;;;16.60;99.90;;;;;;5057095;28;20410;-73
2022/08/11 04:18:17;;;;;;;19.38;10.02;;;16.60;99.90;;;;;;5073536;28;20449;-73
2022/08/11 04:21:08;;;;;;;16.02;9.70;;;16.70;99.90;;;;;;5057079;28;20141;-73
2022/08/11 04:23:40;;;;;;;16.85;9.98;;;16.60;99.90;;;;;;5074586;28;20090;-73
2022/08/11 04:26:28;;;;;;;12.98;9.27;;;16.60;99.90;;;;;;5073074;28;20059;-74
2022/08/11 04:29:23;;;;;;;14.02;9.73;;;16.60;99.90;;;;;;5073133;28;20120;-73
2022/08/11 04:31:58;;;;;;;14.48;10.15;;;16.50;99.90;;;;;;5073386;28;20139;-73
2022/08/11 04:34:49;;;;;;;17.42;10.50;;;16.40;99.90;;;;;;5074241;28;20121;-73
2022/08/11 04:37:33;;;;;;;12.65;9.30;;;16.50;99.90;;;;;;5074159;28;20431;-74
2022/08/11 04:40:29;;;;;;;18.40;10.15;;;16.60;99.90;;;;;;5074429;28;20040;-73
2022/08/11 04:43:33;;;;;;;15.50;9.93;;;16.60;99.90;;;;;;5056251;28;20037;-74
2022/08/11 04:46:19;;;;;;;17.40;10.95;;;16.60;99.90;;;;;;5072740;28;20110;-73
2022/08/11 05:01:41;;;;;;;13.85;10.38;;;16.70;99.90;;;;;;5074001;28;20052;-73
2022/08/11 05:07:27;;;;;;;14.23;8.02;;;16.70;99.90;;;;;;5072137;28;20126;-73
2022/08/11 05:10:05;;;;;;;13.85;9.90;;;17.00;99.90;;;;;;5073697;28;20115;-73
2022/08/11 05:12:48;;;;;;;14.95;10.25;;;17.00;99.90;;;;;;5072697;28;20380;-73
2022/08/11 05:35:26;;;;;;;15.40;11.02;;;17.40;99.90;;;;;;5051407;28;20159;-74
2022/08/11 05:57:23;;;;;;;17.38;10.23;;;17.90;99.90;;;;;;5052542;28;20064;-73
2022/08/11 05:59:57;;;;;;;16.48;10.63;;;19.30;99.90;;;;;;5051138;28;20041;-73
2022/08/11 06:02:23;;;;;;;13.25;8.45;;;18.60;99.90;;;;;;5051078;28;20052;-73
2022/08/11 06:04:56;;;;;;;16.88;9.65;;;19.80;99.90;;;;;;5050927;28;20430;-73
2022/08/11 06:07:28;;;;;;;16.80;9.68;;;18.40;99.90;;;;;;5033995;28;20048;-73
2022/08/11 06:09:56;;;;;;;13.45;9.10;;;19.20;99.90;;;;;;5050795;28;20487;-70
2022/08/11 06:12:25;;;;;;;13.13;8.63;;;18.40;99.90;;;;;;5042607;28;20103;-73
2022/08/11 06:14:54;;;;;;;11.68;8.70;;;18.50;99.90;;;;;;5068024;28;20040;-72
2022/08/11 06:17:29;;;;;;;13.07;8.52;;;18.90;99.90;;;;;;5054849;28;20463;-72
2022/08/11 06:20:05;;;;;;;15.60;8.05;;;18.60;99.90;;;;;;5045340;28;20044;-73
2022/08/11 06:22:32;;;;;;;11.25;8.10;;;18.80;99.90;;;;;;5057858;28;20122;-71
2022/08/11 06:25:00;;;;;;;13.45;7.53;;;18.70;99.90;;;;;;5056559;28;20048;-73
2022/08/11 06:27:30;;;;;;;14.40;9.00;;;18.90;99.90;;;;;;5057563;28;20414;-73
2022/08/11 06:29:57;;;;;;;14.05;8.65;;;19.10;99.90;;;;;;5066748;28;20036;-74
2022/08/11 06:32:30;;;;;;;15.52;8.77;;;19.20;99.90;;;;;;5061640;28;20041;-72
2022/08/11 06:35:17;;;;;;;13.02;7.90;;;19.30;99.90;;;;;;5050900;28;20104;-73
2022/08/11 06:38:01;;;;;;;14.82;8.23;;;19.20;99.90;;;;;;5057592;28;20522;-73
2022/08/11 06:43:55;;;;;;;14.52;7.95;;;19.50;99.90;;;;;;5053439;28;20036;-75
2022/08/11 06:46:40;;;;;;;11.80;8.38;;;19.60;99.90;;;;;;5032383;28;20098;-74
2022/08/11 06:51:10;;;;;;;12.88;8.32;;;20.20;99.90;;;;;;5050885;28;20036;-74
2022/08/11 06:52:04;;;;;;;14.30;8.93;;;19.80;99.90;;;;;;5050678;28;20037;-75
2022/08/11 06:54:33;;;;;;;10.82;7.78;;;19.80;99.90;;;;;;5050425;28;20486;-74
2022/08/11 07:02:35;;;;;;;10.07;7.00;;;20.00;99.90;;;;;;5049402;28;20041;-72
2022/08/11 07:05:10;;;;;;;11.63;7.60;;;20.10;99.90;;;;;;5029929;28;20537;-73
2022/08/11 07:16:56;;;;;;;9.27;6.20;;;21.60;99.90;;;;;;5049101;28;20052;-73
2022/08/11 07:30:47;;;;;;;10.27;6.55;;;21.40;99.90;;;;;;5051832;28;20083;-74
2022/08/11 07:33:18;;;;;;;12.18;5.45;;;21.50;99.90;;;;;;5052940;28;20037;-74
2022/08/11 07:35:52;;;;;;;7.20;5.00;;;21.70;99.90;;;;;;5052579;28;20044;-73
2022/08/11 07:38:43;;;;;;;8.38;5.43;;;21.70;99.90;;;;;;5046765;28;20049;-73
2022/08/11 07:41:13;;;;;;;13.98;5.30;;;22.00;99.90;;;;;;5041347;28;20147;-73
2022/08/11 07:43:40;;;;;;;10.55;5.53;;;22.20;99.90;;;;;;5052367;28;20328;-73
2022/08/11 07:54:23;;;;;;;6.90;4.00;;;22.60;99.90;;;;;;5054049;28;20139;-73
2022/08/11 07:56:49;;;;;;;9.65;4.57;;;22.70;99.90;;;;;;5052676;28;20052;-73
2022/08/11 08:18:33;;;;;;;6.07;2.97;;;24.60;99.90;;;;;;5052389;28;20436;-73
2022/08/11 08:21:10;;;;;;;5.80;2.65;;;23.40;99.90;;;;;;5051494;28;20402;-72
2022/08/11 08:23:38;;;;;;;4.22;2.35;;;23.60;99.90;;;;;;5052062;28;20051;-74
2022/08/11 08:30:46;;;;;;;4.35;2.53;;;24.00;99.90;;;;;;5054179;28;20045;-74
2022/08/11 08:31:50;;;;;;;6.93;3.30;;;25.30;99.90;;;;;;5051220;28;20446;-74
2022/08/11 08:34:17;;;;;;;4.50;2.67;;;24.30;99.90;;;;;;5035571;28;20478;-74
2022/08/11 08:36:48;;;;;;;6.15;2.67;;;24.30;99.90;;;;;;5052357;28;20037;-74
2022/08/11 08:39:17;;;;;;;6.80;2.88;;;24.80;99.90;;;;;;5052456;28;20037;-75
2022/08/11 08:41:44;;;;;;;5.40;2.25;;;24.60;99.90;;;;;;5035476;28;20175;-74
2022/08/11 08:44:12;;;;;;;7.55;2.03;;;24.90;99.90;;;;;;5051930;28;20041;-74
2022/08/11 08:46:49;;;;;;;6.43;1.88;;;24.70;99.90;;;;;;5052169;28;20048;-75
2022/08/11 08:49:18;;;;;;;3.08;1.92;;;24.80;99.90;;;;;;5053679;28;20124;-74
2022/08/11 08:51:49;;;;;;;4.65;1.92;;;24.70;99.90;;;;;;5051162;28;20061;-73
2022/08/11 08:54:20;;;;;;;8.15;2.40;;;25.00;99.90;;;;;;5051263;28;20449;-73
2022/08/11 08:56:50;;;;;;;7.55;2.20;;;25.00;99.90;;;;;;5051577;28;20043;-73
2022/08/11 08:59:16;;;;;;;5.47;1.52;;;25.40;99.90;;;;;;5035113;28;20376;-73
2022/08/11 09:01:46;;;;;;;4.82;2.03;;;25.70;99.90;;;;;;5050852;28;20037;-72
2022/08/11 09:04:13;;;;;;;5.18;1.58;;;25.50;99.90;;;;;;5041939;28;20041;-72
2022/08/11 09:06:42;;;;;;;4.28;1.70;;;25.20;99.90;;;;;;5053382;28;20037;-71
2022/08/11 09:09:10;;;;;;;2.90;1.70;;;25.50;99.90;;;;;;5050144;28;20048;-73
2022/08/11 09:11:52;;;;;;;4.00;1.73;;;25.80;99.90;;;;;;5051215;28;20124;-72
2022/08/11 09:14:22;;;;;;;2.88;1.60;;;25.80;99.90;;;;;;5051183;28;20079;-72
2022/08/11 09:16:49;;;;;;;4.97;1.80;;;26.00;99.70;;;;;;5034148;28;20041;-71
2022/08/11 09:19:17;;;;;;;3.63;2.13;;;26.50;99.90;;;;;;5048807;28;20029;-72
2022/08/11 09:27:21;;;;;;;3.88;1.92;;;26.10;99.70;;;;;;5052172;28;20045;-72
2022/08/11 09:29:47;;;;;;;4.88;2.40;;;26.90;99.20;;;;;;5051297;28;20060;-72
2022/08/11 09:32:13;;;;;;;4.85;1.92;;;26.30;97.90;;;;;;5032698;28;20037;-72
2022/08/11 09:34:40;;;;;;;4.28;2.03;;;26.50;98.00;;;;;;5050081;28;20087;-72
2022/08/11 09:45:24;;;;;;;3.80;2.08;;;26.50;98.50;;;;;;5050695;28;20041;-72
2022/08/11 09:47:50;;;;;;;2.72;2.08;;;26.80;98.60;;;;;;5050279;28;20407;-73
2022/08/11 09:50:17;;;;;;;3.03;1.40;;;26.70;98.30;;;;;;5051658;28;20203;-73
2022/08/11 09:52:45;;;;;;;4.20;1.73;;;26.90;98.70;;;;;;5049494;28;20041;-72
2022/08/11 09:55:14;;;;;;;2.95;1.90;;;27.00;98.40;;;;;;5048376;28;20048;-72
2022/08/11 10:00:31;;;;;;;3.63;1.73;;;26.90;98.00;;;;;;5050809;28;20048;-72
2022/08/11 10:02:58;;;;;;;10.82;2.58;;;27.20;98.60;;;;;;5052293;28;20067;-72
2022/08/11 10:08:12;;;;;;;2.63;1.60;;;27.20;96.90;;;;;;5050824;28;20128;-72
2022/08/11 10:10:40;;;;;;;2.88;1.40;;;27.80;96.40;;;;;;5050437;28;20045;-73
2022/08/11 10:13:13;;;;;;;1.98;1.50;;;27.50;96.70;;;;;;5050586;28;20521;-72
2022/08/11 10:15:42;;;;;;;2.47;1.42;;;27.60;96.20;;;;;;5050259;28;20044;-72
2022/08/11 10:20:58;;;;;;;2.15;1.45;;;28.10;95.40;;;;;;5050642;28;20106;-72
2022/08/11 10:29:01;;;;;;;4.07;1.30;;;27.60;94.80;;;;;;5050253;28;20077;-72
2022/08/11 10:34:12;;;;;;;4.93;2.25;;;28.00;95.30;;;;;;5051094;28;20120;-72
2022/08/11 10:36:49;;;;;;;3.00;1.48;;;28.10;95.80;;;;;;5044772;28;20048;-72
2022/08/11 10:39:19;;;;;;;2.05;1.50;;;28.00;96.20;;;;;;5057279;28;20214;-72
2022/08/11 10:44:37;;;;;;;2.70;1.27;;;28.90;95.40;;;;;;5055633;28;20477;-71
2022/08/11 10:51:11;;;;;;;3.38;1.50;;;28.30;95.40;;;;;;5058265;28;20460;-72
2022/08/11 11:00:55;;;;;;;5.63;1.77;;;28.50;94.90;;;;;;5065937;28;20043;-71
2022/08/11 11:03:24;;;;;;;3.10;1.60;;;28.50;95.20;;;;;;5049641;28;20037;-71
2022/08/11 11:05:51;;;;;;;3.72;1.63;;;29.00;95.40;;;;;;5050845;28;20752;-71
2022/08/11 11:11:07;;;;;;;1.98;1.50;;;29.10;95.30;;;;;;5050038;28;20147;-72
2022/08/11 11:19:08;;;;;;;3.47;2.08;;;28.70;95.00;;;;;;5049967;28;20083;-72
2022/08/11 11:21:37;;;;;;;4.93;1.70;;;29.00;96.10;;;;;;5050006;28;20513;-72
2022/08/11 11:24:10;;;;;;;4.00;1.55;;;29.00;98.50;;;;;;5042815;22;20951;-71
2022/08/11 11:27:04;;;;;;;4.05;1.42;;;29.20;96.40;;;;;;5008639;28;20042;-72
2022/08/11 11:29:51;;;;;;;3.58;1.40;;;28.90;94.00;;;;;;5010239;28;20500;-70
2022/08/11 11:32:29;;;;;;;2.92;1.42;;;28.90;93.50;;;;;;5010542;28;20392;-71
2022/08/11 11:35:25;;;;;;;3.13;1.58;;;29.00;93.70;;;;;;5011002;28;20081;-74
2022/08/11 11:37:51;;;;;;;2.15;1.60;;;29.40;95.00;;;;;;5010129;28;20038;-70
2022/08/11 11:40:20;;;;;;;1.95;1.38;;;29.50;94.70;;;;;;5010117;28;20168;-71
2022/08/11 11:42:48;;;;;;;6.22;1.80;;;29.40;94.10;;;;;;4993898;28;20045;-73
2022/08/11 11:45:19;;;;;;;4.43;1.58;;;29.40;94.30;;;;;;5009744;28;20046;-71
2022/08/11 11:47:51;;;;;;;3.65;1.45;;;29.30;94.40;;;;;;5010290;28;20041;-71
2022/08/11 11:50:22;;;;;;;2.95;1.35;;;29.20;94.80;;;;;;5011650;28;20034;-71
2022/08/11 11:52:51;;;;;;;3.33;1.63;;;29.30;94.50;;;;;;5009452;28;20037;-71
2022/08/11 11:55:18;;;;;;;1.52;1.40;;;29.40;94.40;;;;;;5010896;28;20277;-71
2022/08/11 12:03:14;;;;;;;5.80;1.33;;;29.50;93.10;;;;;;5010010;28;20046;-71
2022/08/11 12:05:42;;;;;;;1.75;1.30;;;29.60;94.90;;;;;;5009871;28;20604;-71
2022/08/11 12:08:14;;;;;;;2.05;1.13;;;29.90;94.90;;;;;;4992435;28;20054;-71
2022/08/11 12:13:39;;;;;;;;;;;29.70;97.80;;;;;;4994224;28;20042;-71
2022/08/11 12:13:41;;;;;;;3.78;1.13;;;29.70;96.20;;;;;;5009758;28;19964;-71
2022/08/11 12:16:11;;;;;;;6.00;2.28;;;;;;;;;;5013224;28;20049;-71
2022/08/11 12:18:38;;;;;;;2.95;1.05;;;29.80;99.20;;;;;;4996940;28;20077;-72
2022/08/11 12:21:04;;;;;;;3.25;1.20;;;30.10;95.90;;;;;;5013095;28;20547;-71
2022/08/11 12:29:04;;;;;;;3.47;1.77;;;30.30;97.10;;;;;;5013898;28;20042;-71
2022/08/11 12:31:34;;;;;;;3.58;1.20;;;30.00;92.70;;;;;;4997095;28;20042;-71
2022/08/11 12:34:04;;;;;;;3.92;1.45;;;30.00;92.70;;;;;;4996602;28;20042;-71
2022/08/11 12:36:38;;;;;;;2.50;1.42;;;29.80;93.50;;;;;;5014461;28;20034;-71
2022/08/11 12:39:08;;;;;;;2.63;1.30;;;30.20;93.80;;;;;;5014444;28;20503;-71
2022/08/11 12:47:11;;;;;;;2.65;1.10;;;30.10;93.60;;;;;;5014079;28;20500;-71
2022/08/11 12:52:34;;;;;;;3.83;1.25;;;30.30;94.80;;;;;;5014254;28;20046;-71
2022/08/11 12:55:08;;;;;;;1.77;1.40;;;30.20;94.80;;;;;;5013575;28;20515;-71
2022/08/11 13:05:58;;;;;;;2.70;1.13;;;30.20;91.80;;;;;;5033608;28;20142;-71
2022/08/11 13:08:26;;;;;;;3.17;1.40;;;30.40;91.90;;;;;;5032107;28;20462;-71
2022/08/11 13:13:41;;;;;;;4.07;1.08;;;30.30;92.20;;;;;;5031944;28;20050;-71
2022/08/11 13:16:08;;;;;;;2.40;1.23;;;30.30;92.60;;;;;;5033492;28;20040;-72
2022/08/11 13:18:35;;;;;;;3.83;1.20;;;30.50;92.60;;;;;;5032165;28;20179;-72
2022/08/11 13:21:01;;;;;;;2.15;0.82;;;30.30;94.50;;;;;;5015497;28;20050;-71
2022/08/11 13:23:28;;;;;;;3.33;1.10;;;30.50;92.70;;;;;;5033104;28;20045;-71
2022/08/11 13:25:54;;;;;;;2.40;1.40;;;30.30;92.80;;;;;;5015318;28;20099;-71
2022/08/11 13:28:21;;;;;;;4.47;1.67;;;30.50;93.20;;;;;;5032083;28;20474;-71
2022/08/11 13:33:38;;;;;;;3.17;1.20;;;30.30;94.10;;;;;;5032226;28;20710;-72
2022/08/11 13:36:04;;;;;;;3.67;1.10;;;30.40;94.20;;;;;;5033301;28;20041;-71
2022/08/11 13:38:31;;;;;;;2.78;1.10;;;30.70;94.40;;;;;;5031861;28;20041;-71
2022/08/11 13:40:58;;;;;;;2.05;1.13;;;30.70;93.70;;;;;;5031674;28;20048;-72
2022/08/11 13:43:24;;;;;;;3.20;1.30;;;30.30;93.40;;;;;;5015345;28;20042;-72
2022/08/11 13:46:17;;;;;;;3.42;1.60;;;30.70;93.90;;;;;;5031387;28;20095;-71
2022/08/11 13:48:38;;;;;;;3.92;1.30;;;30.50;93.60;;;;;;5031656;28;20072;-70
2022/08/11 13:53:50;;;;;;;4.40;1.17;;;30.40;93.60;;;;;;5031127;28;20046;-71
2022/08/11 13:56:16;;;;;;;5.18;1.27;;;30.90;93.90;;;;;;5014698;28;20050;-71
2022/08/11 13:58:42;;;;;;;1.73;1.00;;;30.60;93.80;;;;;;5010858;28;20038;-71
2022/08/11 14:01:10;;;;;;;4.10;1.30;;;30.60;93.90;;;;;;5017605;28;20041;-71
2022/08/11 14:03:40;;;;;;;3.45;1.60;;;30.40;93.90;;;;;;5031434;28;20068;-71
2022/08/11 14:06:08;;;;;;;1.83;1.20;;;30.70;93.80;;;;;;5013840;28;20385;-71
2022/08/11 14:08:38;;;;;;;5.53;2.10;;;;;;;;;;5012353;28;20042;-71
2022/08/11 14:13:52;;;;;;;5.18;1.70;;;30.70;97.30;;;;;;5011092;28;20049;-71
2022/08/11 14:16:30;;;;;;;4.80;1.40;;;30.70;96.00;;;;;;5012907;28;20447;-71
2022/08/11 14:19:03;;;;;;;2.35;1.20;;;30.10;95.40;;;;;;5011234;28;20038;-71
2022/08/11 14:24:18;;;;;;;4.20;1.20;;;30.50;95.90;;;;;;5012552;28;20065;-72
2022/08/11 14:26:47;;;;;;;2.10;1.20;;;30.70;96.10;;;;;;5013552;28;20046;-72
2022/08/11 14:29:19;;;;;;;2.35;1.40;;;30.70;96.30;;;;;;5011235;28;20477;-72
2022/08/11 14:31:48;;;;;;;5.53;1.20;;;30.60;95.60;;;;;;5012715;28;20044;-72
2022/08/11 14:34:17;;;;;;;3.85;1.20;;;30.50;95.60;;;;;;5011959;28;20399;-72
2022/08/11 14:36:46;;;;;;;3.22;1.30;;;30.60;95.70;;;;;;4995038;28;20051;-72
2022/08/11 14:39:17;;;;;;;1.58;0.98;;;30.30;95.30;;;;;;5010341;28;20053;-72
2022/08/11 14:47:39;;;;;;;2.88;1.08;;;30.80;95.70;;;;;;5011024;28;20093;-72
2022/08/11 14:50:09;;;;;;;2.65;1.00;;;30.70;95.80;;;;;;5011517;28;20034;-72
2022/08/11 14:52:35;;;;;;;1.65;1.23;;;30.70;95.70;;;;;;4993976;28;20032;-72
2022/08/11 14:57:47;;;;;;;2.08;1.10;;;30.10;95.20;;;;;;5010642;28;20085;-72
2022/08/11 15:00:15;;;;;;;4.03;1.25;;;30.70;96.30;;;;;;4993026;28;20412;-72
2022/08/11 15:05:26;;;;;;;4.07;1.48;;;30.80;96.00;;;;;;5031268;28;20475;-72
2022/08/11 15:07:54;;;;;;;4.95;1.75;;;30.80;96.80;;;;;;5030518;28;20041;-72
2022/08/11 15:10:21;;;;;;;3.25;2.00;;;30.20;97.90;;;;;;5013286;28;20068;-72
2022/08/11 15:12:47;;;;;;;4.50;2.05;;;30.10;99.10;;;;;;5010541;28;20042;-72
2022/08/11 15:18:03;;;;;;;4.28;1.40;;;29.70;99.10;;;;;;5010551;28;20180;-72
2022/08/11 15:26:14;;;;;;;2.80;1.27;;;29.80;98.30;;;;;;5011585;28;20459;-72
2022/08/11 15:45:50;;;;;;;4.00;1.40;;;29.80;97.60;;;;;;5011249;28;20496;-72
2022/08/11 15:48:25;;;;;;;3.70;1.73;;;29.50;97.80;;;;;;5010237;28;20061;-72
2022/08/11 15:50:55;;;;;;;3.15;1.42;;;29.40;97.70;;;;;;5012349;28;20079;-72
2022/08/11 15:53:40;;;;;;;2.75;1.40;;;29.60;97.70;;;;;;5013944;28;20037;-72
2022/08/11 15:56:06;;;;;;;3.17;1.50;;;29.40;97.20;;;;;;5015026;28;20491;-72
2022/08/11 16:04:13;;;;;;;3.90;1.48;;;29.70;97.80;;;;;;5009180;28;20045;-73
2022/08/11 16:07:03;;;;;;;3.17;1.20;;;29.70;98.10;;;;;;5009665;28;20045;-72
2022/08/11 16:09:29;;;;;;;5.82;1.75;;;29.50;97.40;;;;;;5009721;28;20073;-72
2022/08/11 16:11:59;;;;;;;3.28;1.05;;;29.60;97.80;;;;;;5004935;28;20496;-72
2022/08/11 16:17:14;;;;;;;4.10;1.20;;;30.10;98.00;;;;;;4999502;28;20430;-72
2022/08/11 16:19:42;;;;;;;1.35;1.20;;;29.80;97.70;;;;;;5007251;28;20037;-72
2022/08/11 16:22:11;;;;;;;2.85;1.17;;;29.30;97.50;;;;;;5009631;28;20121;-72
2022/08/11 16:24:50;;;;;;;3.10;1.10;;;29.50;97.60;;;;;;4987577;28;20160;-72
2022/08/11 16:27:18;;;;;;;2.53;1.40;;;29.20;97.60;;;;;;4994735;28;20121;-72
2022/08/11 16:29:46;;;;;;;6.30;2.00;;;29.30;97.90;;;;;;4986258;28;20180;-72
2022/08/11 16:32:20;;;;;;;4.22;1.35;;;29.90;98.20;;;;;;5005773;28;20042;-71
2022/08/11 16:40:29;;;;;;;3.72;1.30;;;29.30;98.40;;;;;;5010985;28;20046;-72
2022/08/11 16:48:34;;;;;;;5.07;1.10;;;29.10;99.00;;;;;;5008848;28;20107;-71
2022/08/11 16:51:00;;;;;;;7.38;1.60;;;;;;;;;;5009348;28;20168;-72
2022/08/11 16:53:33;;;;;;;7.60;1.30;;;;;;;;;;5009039;28;20092;-72
2022/08/11 16:56:02;;;;;;;3.97;1.20;;;;;;;;;;5010391;28;20411;-72
2022/08/11 17:01:16;;;;;;;2.17;1.23;;;;;;;;;;5010879;28;20137;-71
2022/08/11 17:14:50;;;;;;;5.07;1.60;;;;;;;;;;5008736;28;20360;-71
2022/08/11 17:17:17;;;;;;;2.05;1.20;;;;;;;;;;5010675;28;20046;-72
2022/08/11 17:19:48;;;;;;;5.65;2.45;;;;;;;;;;4997435;28;20042;-72
2022/08/11 17:24:59;;;;;;;2.85;1.55;;;;;;;;;;5084356;22;20409;-72
2022/08/11 17:27:26;;;;;;;6.63;1.52;;;;;;;;;;5071274;28;20041;-72
2022/08/11 17:29:54;;;;;;;3.45;1.80;;;;;;;;;;5071923;28;20173;-72
2022/08/11 17:35:29;;;;;;;4.32;1.63;;;;;;;;;;5072569;28;20044;-72
2022/08/11 17:37:57;;;;;;;8.20;1.60;;;;;;;;;;5067067;28;20040;-72
2022/08/11 17:40:25;;;;;;;1.83;1.10;;;;;;;;;;5051893;28;20064;-72
2022/08/11 17:48:26;;;;;;;1.92;1.20;;;;;;;;;;5052842;28;20045;-72
2022/08/11 17:50:54;;;;;;;2.17;1.38;;;;;;;;;;5058483;28;20041;-72
2022/08/11 18:01:38;;;;;;;3.25;1.38;;;;;;;;;;5061224;28;20049;-72
2022/08/11 18:04:05;;;;;;;3.00;1.45;;;;;;;;;;5052499;28;20048;-71
2022/08/11 18:06:32;;;;;;;3.63;1.42;;;;;;;;;;5060409;28;20048;-72
